Time;durP1;ratioP1;P1;durP2;ratioP2;P2;SDS_P1;SDS_P2;PMS_P1;PMS_P2;Temp;Humidity;BMP_temperature;BMP_pressure;BME280_temperature;BME280_humidity;BME280_pressure;Samples;Min_cycle;Max_cycle;Signal;HPM_P1;HPM_P2
2022/07/19 00:00:12;;;;;;;;;;;20.20;61.20;;;19.56;56.82;96990.56;4292732;33;20143;-83
2022/07/19 00:02:40;;;;;;;;;;;20.20;61.20;;;19.56;57.15;96985.00;4291200;33;19908;-83
2022/07/19 00:05:11;;;;;;;;;;;20.20;61.20;;;19.56;57.21;96993.34;4291729;33;19907;-83
2022/07/19 00:07:40;;;;;;;;;;;20.20;61.30;;;19.55;56.91;96986.16;4291431;33;19931;-83
2022/07/19 00:10:10;;;;;;;;;;;20.20;61.20;;;19.56;57.24;96984.19;4291453;33;20384;-83
2022/07/19 00:12:39;;;;;;;;;;;20.20;61.40;;;19.54;57.03;96987.28;4290952;33;19901;-84
2022/07/19 00:15:10;;;;;;;;;;;20.20;61.30;;;19.53;56.79;96988.44;4292540;33;20018;-83
2022/07/19 00:17:41;;;;;;;;;;;20.20;61.30;;;19.54;56.99;96983.69;4291772;33;19901;-83
2022/07/19 00:20:12;;;;;;;;;;;20.20;61.30;;;19.54;56.95;96989.22;4291458;33;19908;-84
2022/07/19 00:22:41;;;;;;;;;;;20.20;61.10;;;19.53;57.00;96990.34;4290816;33;19990;-82
2022/07/19 00:25:10;;;;;;;;;;;20.10;61.40;;;19.52;57.03;96992.34;4316034;32;20056;-82
2022/07/19 00:27:40;;;;;;;;;;;20.10;61.40;;;19.51;57.16;96989.84;4292334;33;20148;-82
2022/07/19 00:30:09;;;;;;;;;;;20.10;61.40;;;19.51;57.18;96996.25;4292468;33;19901;-82
2022/07/19 00:32:38;;;;;;;;;;;20.10;61.30;;;19.50;56.96;96989.03;4291917;33;19901;-83
2022/07/19 00:35:07;;;;;;;;;;;20.10;61.40;;;19.50;57.35;96991.81;4292363;33;19901;-83
2022/07/19 00:37:37;;;;;;;;;;;20.10;61.40;;;19.49;57.10;96992.94;4291254;33;20588;-83
2022/07/19 00:40:08;;;;;;;;;;;20.10;61.40;;;19.49;57.02;96992.94;4291369;33;19936;-84
2022/07/19 00:42:38;;;;;;;;;;;20.10;61.30;;;19.48;56.95;96991.28;4291734;33;20595;-84
2022/07/19 00:45:08;;;;;;;;;;;20.10;61.40;;;19.48;57.07;96994.06;4267354;33;19924;-84
2022/07/19 00:47:37;;;;;;;;;;;20.10;61.40;;;19.47;56.86;97000.75;4292087;33;20047;-84
2022/07/19 00:50:06;;;;;;;;;;;20.10;61.40;;;19.47;57.00;96986.88;4292231;33;19902;-83
2022/07/19 00:52:35;;;;;;;;;;;20.10;61.40;;;19.47;57.26;96989.66;4291612;33;19909;-82
2022/07/19 00:55:06;;;;;;;;;;;20.10;61.40;;;19.46;56.84;96993.56;4292218;33;20076;-83
2022/07/19 00:57:35;;;;;;;;;;;20.10;61.40;;;19.45;57.18;96989.97;4292228;33;19902;-83
2022/07/19 01:00:04;;;;;;;;;;;20.10;61.50;;;19.45;57.05;96991.91;4291223;33;20243;-83
2022/07/19 01:02:33;;;;;;;;;;;20.10;61.60;;;19.44;57.15;96995.81;4290603;33;20440;-83
2022/07/19 01:05:01;;;;;;;;;;;20.10;61.40;;;19.43;57.09;96994.16;4292213;33;20355;-83
2022/07/19 01:07:30;;;;;;;;;;;20.10;61.40;;;19.44;56.95;96998.59;4292038;33;20369;-83
2022/07/19 01:09:59;;;;;;;;;;;20.10;61.40;;;19.43;57.15;96988.59;4292143;33;19954;-83
2022/07/19 01:12:29;;;;;;;;;;;20.10;61.40;;;19.42;57.14;96995.31;4291521;33;19902;-83
2022/07/19 01:14:58;;;;;;;;;;;20.10;61.40;;;19.41;57.06;96996.44;4291060;33;20097;-82
2022/07/19 01:17:26;;;;;;;;;;;20.00;61.20;;;19.40;56.82;96995.63;4290646;33;20196;-83
2022/07/19 01:19:55;;;;;;;;;;;20.10;61.40;;;19.39;57.16;96993.97;4290819;33;19901;-83
2022/07/19 01:22:25;;;;;;;;;;;20.10;61.30;;;19.40;56.45;96994.81;4291264;33;20206;-84
2022/07/19 01:24:54;;;;;;;;;;;20.00;61.30;;;19.40;56.91;96994.81;4291771;33;20336;-84
2022/07/19 01:27:22;;;;;;;;;;;20.00;61.40;;;19.39;56.76;96987.59;4290362;33;19908;-82
2022/07/19 01:29:51;;;;;;;;;;;20.00;61.40;;;19.38;57.00;96992.31;4290911;33;20047;-83
2022/07/19 01:32:19;;;;;;;;;;;20.00;61.40;;;19.39;57.00;96987.59;4291196;33;20132;-83
2022/07/19 01:34:48;;;;;;;;;;;20.00;61.30;;;19.37;56.66;96982.34;4291761;33;20136;-84
2022/07/19 01:37:16;;;;;;;;;;;20.00;61.40;;;19.37;56.92;96987.91;4291527;33;19901;-83
2022/07/19 01:39:46;;;;;;;;;;;20.00;61.40;;;19.36;57.15;96983.50;4290732;33;20097;-83
2022/07/19 01:42:15;;;;;;;;;;;20.00;61.40;;;19.35;57.04;96983.78;4290028;33;19941;-84
2022/07/19 01:44:43;;;;;;;;;;;20.00;61.40;;;19.35;57.30;96987.41;4291714;33;19902;-83
2022/07/19 01:47:12;;;;;;;;;;;20.00;61.40;;;19.35;57.05;96986.56;4291535;33;20039;-84
2022/07/19 01:49:41;;;;;;;;;;;20.00;61.50;;;19.34;57.14;96987.69;4291454;33;20129;-83
2022/07/19 01:52:09;;;;;;;;;;;20.00;61.40;;;19.33;56.80;96986.88;4290049;33;20070;-82
2022/07/19 01:54:38;;;;;;;;;;;20.00;61.30;;;19.34;57.03;96982.13;4290561;33;20389;-83
2022/07/19 01:57:08;;;;;;;;;;;20.00;61.40;;;19.32;57.42;96977.72;4291411;33;19908;-84
2022/07/19 01:59:37;;;;;;;;;;;19.90;61.30;;;19.33;57.25;96981.34;4290369;33;19979;-83
2022/07/19 02:02:05;;;;;;;;;;;20.00;61.40;;;19.31;57.19;96987.19;4289893;33;19901;-84
2022/07/19 02:04:34;;;;;;;;;;;19.90;61.40;;;19.32;57.18;96979.69;4291242;33;19908;-84
2022/07/19 02:07:03;;;;;;;;;;;19.90;61.40;;;19.29;56.78;96971.97;4291382;33;19902;-84
2022/07/19 02:09:31;;;;;;;;;;;19.90;61.50;;;19.29;57.41;96978.34;4289839;33;20198;-83
2022/07/19 02:12:00;;;;;;;;;;;19.90;61.50;;;19.29;57.19;96978.34;4290629;33;19925;-82
2022/07/19 02:14:29;;;;;;;;;;;19.90;61.60;;;19.29;57.25;96978.34;4266382;33;19902;-83
2022/07/19 02:16:58;;;;;;;;;;;19.90;61.60;;;19.29;57.24;96981.13;4290402;33;19901;-83
2022/07/19 02:19:27;;;;;;;;;;;19.90;61.60;;;19.28;57.06;96979.50;4290293;33;19908;-82
2022/07/19 02:21:55;;;;;;;;;;;19.90;61.50;;;19.28;57.28;96970.31;4289011;33;19924;-82
2022/07/19 02:24:24;;;;;;;;;;;19.90;61.70;;;19.27;57.45;96979.78;4265213;33;19994;-83
2022/07/19 02:26:52;;;;;;;;;;;19.90;61.60;;;19.25;57.62;96977.31;4291213;33;19908;-83
2022/07/19 02:29:21;;;;;;;;;;;19.90;61.70;;;19.26;57.00;96983.69;4291183;33;19901;-82
2022/07/19 02:31:51;;;;;;;;;;;19.90;61.50;;;19.26;57.38;96983.69;4290479;33;19969;-83
2022/07/19 02:34:20;;;;;;;;;;;19.90;61.50;;;19.25;57.29;96982.88;4291007;33;20054;-84
2022/07/19 02:36:48;;;;;;;;;;;19.90;61.60;;;19.23;57.07;96974.03;4291184;33;19958;-83
2022/07/19 02:39:16;;;;;;;;;;;19.90;61.50;;;19.23;57.43;96974.03;4289886;33;20125;-83
2022/07/19 02:41:45;;;;;;;;;;;19.90;61.60;;;19.23;57.36;96974.03;4289523;33;20051;-83
2022/07/19 02:44:14;;;;;;;;;;;19.90;61.60;;;19.22;57.20;96971.56;4290976;33;19902;-83
2022/07/19 02:46:42;;;;;;;;;;;19.90;61.80;;;19.22;57.77;96972.38;4290145;33;19901;-83
2022/07/19 02:49:12;;;;;;;;;;;19.90;61.90;;;19.21;57.27;96976.28;4289996;33;19902;-83
2022/07/19 02:51:41;;;;;;;;;;;19.90;61.80;;;19.22;57.31;96982.66;4290571;33;20079;-82
2022/07/19 02:54:09;;;;;;;;;;;19.90;61.80;;;19.21;57.59;96979.06;4290845;33;19908;-82
2022/07/19 02:56:38;;;;;;;;;;;19.90;61.80;;;19.21;57.41;96983.81;4289981;33;20139;-82
2022/07/19 02:59:07;;;;;;;;;;;19.90;61.70;;;19.20;57.18;96980.19;4290794;33;20247;-82
2022/07/19 03:01:35;;;;;;;;;;;19.90;61.80;;;19.19;57.68;96986.88;4289444;33;19902;-84
2022/07/19 03:04:04;;;;;;;;;;;19.90;62.00;;;19.20;57.58;96982.97;4265629;33;19957;-85
2022/07/19 03:06:34;;;;;;;;;;;19.90;62.00;;;19.21;57.70;96989.34;4289934;33;19901;-84
2022/07/19 03:09:03;;;;;;;;;;;19.90;61.90;;;19.19;57.53;96988.81;4290715;33;19908;-84
2022/07/19 03:11:31;;;;;;;;;;;19.80;61.90;;;19.18;57.32;96990.78;4265043;33;20225;-84
2022/07/19 03:14:00;;;;;;;;;;;19.80;61.70;;;19.19;57.42;96977.72;4290854;33;20052;-84
2022/07/19 03:16:28;;;;;;;;;;;19.80;61.90;;;19.18;57.76;96982.44;4290867;33;20004;-84
2022/07/19 03:18:57;;;;;;;;;;;19.80;61.90;;;19.17;57.23;96987.19;4290612;33;20286;-84
2022/07/19 03:21:25;;;;;;;;;;;19.80;61.70;;;19.17;57.64;96983.56;4289574;33;19908;-84
2022/07/19 03:23:55;;;;;;;;;;;19.80;61.70;;;19.18;57.38;96982.44;4293059;33;20312;-84
2022/07/19 03:26:24;;;;;;;;;;;19.80;61.90;;;19.18;57.82;96982.44;4293015;33;19909;-84
2022/07/19 03:28:53;;;;;;;;;;;19.80;61.90;;;19.17;57.91;96984.41;4292128;33;19901;-84
2022/07/19 03:31:21;;;;;;;;;;;19.80;62.00;;;19.18;57.26;96988.00;4291574;33;19909;-84
2022/07/19 03:33:50;;;;;;;;;;;19.80;61.80;;;19.19;57.62;96978.53;4292871;33;20103;-84
2022/07/19 03:36:18;;;;;;;;;;;19.80;62.00;;;19.19;57.55;96988.81;4291935;33;19921;-84
2022/07/19 03:38:47;;;;;;;;;;;19.80;61.90;;;19.19;57.85;96978.53;4291934;33;20108;-83
2022/07/19 03:41:17;;;;;;;;;;;19.90;62.20;;;19.20;57.69;96985.75;4291688;33;20285;-84
2022/07/19 03:43:46;;;;;;;;;;;19.90;62.00;;;19.22;57.92;96983.47;4292285;33;20221;-84
2022/07/19 03:46:14;;;;;;;;;;;19.90;62.00;;;19.23;57.52;96989.88;4292026;33;20128;-84
2022/07/19 03:48:43;;;;;;;;;;;19.90;62.10;;;19.23;57.89;96987.91;4291777;33;19901;-84
2022/07/19 03:51:11;;;;;;;;;;;19.90;62.00;;;19.25;57.04;96988.41;4267693;33;19902;-84
2022/07/19 03:53:40;;;;;;;;;;;19.90;61.70;;;19.26;57.52;96990.06;4291726;33;20221;-82
2022/07/19 03:56:09;;;;;;;;;;;19.90;61.90;;;19.26;57.39;96990.06;4292824;33;20215;-82
2022/07/19 03:58:39;;;;;;;;;;;19.90;61.80;;;19.27;57.07;96986.16;4292896;33;20104;-82
2022/07/19 04:01:07;;;;;;;;;;;19.90;61.50;;;19.29;57.46;96992.25;4292997;33;19908;-83
2022/07/19 04:03:38;;;;;;;;;;;19.90;61.60;;;19.30;57.15;96991.06;4292467;33;19994;-83
2022/07/19 04:06:07;;;;;;;;;;;20.00;61.40;;;19.31;56.96;96991.91;4291978;33;20120;-83
2022/07/19 04:08:35;;;;;;;;;;;20.00;61.30;;;19.32;57.26;96994.38;4291786;33;19902;-83
2022/07/19 04:11:04;;;;;;;;;;;20.00;61.40;;;19.33;57.22;96995.22;4292735;33;20127;-82
2022/07/19 04:13:34;;;;;;;;;;;20.00;61.50;;;19.35;57.02;96992.13;4291252;33;20049;-84
2022/07/19 04:16:05;;;;;;;;;;;20.00;61.40;;;19.36;56.97;96983.50;4263798;33;19901;-84
2022/07/19 04:18:34;;;;;;;;;;;20.00;61.30;;;19.37;56.45;96987.91;4263744;33;20137;-84
2022/07/19 04:21:02;;;;;;;;;;;20.00;60.80;;;19.38;56.97;96981.22;4263583;33;20282;-84
2022/07/19 04:23:31;;;;;;;;;;;20.00;60.90;;;19.40;56.83;96989.25;4262221;33;19938;-84
2022/07/19 04:26:00;;;;;;;;;;;20.10;60.80;;;19.42;56.40;96987.81;4263478;33;20330;-84
2022/07/19 04:28:28;;;;;;;;;;;20.10;60.50;;;19.43;56.29;96988.59;4262671;33;19902;-83
2022/07/19 04:30:57;;;;;;;;;;;20.10;60.30;;;19.45;56.19;96997.47;4263430;33;20151;-83
2022/07/19 04:33:27;;;;;;;;;;;20.10;60.30;;;19.46;56.04;96988.84;4261813;33;20157;-83
2022/07/19 04:35:55;;;;;;;;;;;20.10;60.10;;;19.47;56.02;96990.47;4263395;33;20359;-83
2022/07/19 04:38:24;;;;;;;;;;;20.10;60.10;;;19.49;55.71;96984.63;4263342;33;20231;-84
2022/07/19 04:41:00;;;;;;;;;;;20.10;60.00;;;19.51;55.64;96984.28;4238417;33;19902;-83
2022/07/19 04:43:28;;;;;;;;;;;20.20;59.80;;;19.53;55.98;96993.97;4238119;33;20120;-83
2022/07/19 04:45:59;;;;;;;;;;;20.20;60.10;;;19.54;56.50;96984.50;4262105;33;19946;-83
2022/07/19 04:48:29;;;;;;;;;;;20.20;60.30;;;19.57;56.23;96983.06;4263339;33;20205;-83
2022/07/19 04:50:58;;;;;;;;;;;20.20;60.60;;;19.59;57.18;96987.16;4262120;33;20057;-83
2022/07/19 04:53:26;;;;;;;;;;;20.30;61.30;;;19.60;57.32;96988.81;4262623;33;19956;-83
2022/07/19 04:55:55;;;;;;;;;;;20.30;61.60;;;19.61;57.28;96987.69;4283005;33;19901;-84
2022/07/19 04:58:23;;;;;;;;;;;20.30;61.60;;;19.63;57.99;96988.19;4291044;33;19905;-84
2022/07/19 05:00:52;;;;;;;;;;;20.30;62.00;;;19.65;57.12;96995.41;4292150;33;19901;-83
2022/07/19 05:03:21;;;;;;;;;;;20.30;61.50;;;19.68;57.80;96986.47;4290677;33;19971;-83
2022/07/19 05:05:50;;;;;;;;;;;20.30;61.80;;;19.70;57.46;96989.72;4266718;33;19901;-83
2022/07/19 05:08:19;;;;;;;;;;;20.30;61.70;;;19.72;57.61;96993.03;4291024;33;20075;-85
2022/07/19 05:10:48;;;;;;;;;;;20.40;61.90;;;19.71;57.21;96983.88;4291782;33;19908;-84
2022/07/19 05:13:16;;;;;;;;;;;20.40;61.60;;;19.73;57.04;96986.31;4290377;33;19901;-84
2022/07/19 05:15:45;;;;;;;;;;;20.40;61.40;;;19.74;57.44;96993.53;4290949;33;19976;-83
2022/07/19 05:18:13;;;;;;;;;;;20.40;61.70;;;19.76;57.38;96994.06;4292064;33;19901;-84
2022/07/19 05:20:42;;;;;;;;;;;20.40;61.70;;;19.76;57.77;96991.28;4290859;33;19902;-83
2022/07/19 05:23:12;;;;;;;;;;;20.40;62.00;;;19.75;57.80;96987.66;4291509;33;20208;-83
2022/07/19 05:25:40;;;;;;;;;;;20.40;62.00;;;19.76;57.75;96991.28;4291769;33;19902;-83
2022/07/19 05:28:09;;;;;;;;;;;20.40;62.00;;;19.75;57.88;96990.44;4290824;33;19924;-83
2022/07/19 05:30:37;;;;;;;;;;;20.40;62.10;;;19.74;57.86;96982.41;4291835;33;20146;-85
2022/07/19 05:33:06;;;;;;;;;;;20.40;62.30;;;19.74;58.06;96987.97;4291213;33;19928;-83
2022/07/19 05:35:34;;;;;;;;;;;20.40;62.50;;;19.75;58.15;96984.06;4290663;33;20094;-82
2022/07/19 05:38:03;;;;;;;;;;;20.40;62.30;;;19.75;57.90;96978.50;4291772;33;20235;-84
2022/07/19 05:40:33;;;;;;;;;;;20.40;62.20;;;19.76;57.89;96986.53;4315168;32;20277;-84
2022/07/19 05:43:01;;;;;;;;;;;20.40;62.40;;;19.77;58.11;96981.81;4290085;33;20228;-83
2022/07/19 05:45:30;;;;;;;;;;;20.40;62.50;;;19.78;58.09;96991.78;4291154;33;19908;-83
2022/07/19 05:47:59;;;;;;;;;;;20.40;62.20;;;19.80;57.50;96994.25;4290742;33;19908;-83
2022/07/19 05:50:27;;;;;;;;;;;20.40;61.80;;;19.81;57.67;96993.09;4291520;33;19902;-84
2022/07/19 05:52:56;;;;;;;;;;;20.50;61.80;;;19.84;57.60;96995.28;4291104;33;20219;-83
2022/07/19 05:55:24;;;;;;;;;;;20.50;61.70;;;19.85;57.50;96991.38;4314795;32;20224;-84
2022/07/19 05:57:54;;;;;;;;;;;20.50;61.70;;;19.88;57.19;96994.38;4291438;33;20110;-83
2022/07/19 06:00:23;;;;;;;;;;;20.50;61.60;;;19.90;57.09;96986.53;4291367;33;20140;-84
2022/07/19 06:02:52;;;;;;;;;;;20.50;61.60;;;19.94;57.33;96986.75;4290985;33;20128;-84
2022/07/19 06:05:20;;;;;;;;;;;20.60;61.50;;;19.97;56.92;96991.69;4291364;33;20156;-84
2022/07/19 06:07:49;;;;;;;;;;;20.60;61.20;;;19.99;56.89;96989.41;4291408;33;20158;-83
2022/07/19 06:10:17;;;;;;;;;;;20.60;61.20;;;20.03;56.91;96984.03;4291156;33;19901;-83
2022/07/19 06:12:46;;;;;;;;;;;20.60;61.30;;;20.05;57.48;96990.13;4265715;33;19902;-84
2022/07/19 06:15:18;;;;;;;;;;;20.70;61.40;;;20.07;57.11;96993.41;4290834;33;23296;-84
2022/07/19 06:17:47;;;;;;;;;;;20.70;61.60;;;20.08;57.01;96993.09;4290542;33;19901;-83
2022/07/19 06:20:16;;;;;;;;;;;20.70;61.50;;;20.10;57.23;96991.94;4291175;33;20204;-83
2022/07/19 06:22:44;;;;;;;;;;;20.70;61.50;;;20.12;57.28;96990.50;4289751;33;19999;-84
2022/07/19 06:25:13;;;;;;;;;;;20.80;61.40;;;20.14;57.46;96996.56;4291153;33;20054;-84
2022/07/19 06:27:41;;;;;;;;;;;20.80;61.60;;;20.15;57.04;96992.66;4290172;33;19901;-85
2022/07/19 06:30:10;;;;;;;;;;;20.80;61.50;;;20.16;57.20;96999.03;4290132;33;20054;-84
2022/07/19 06:32:41;;;;;;;;;;;20.80;61.50;;;20.16;57.59;96994.31;4289589;33;19901;-84
2022/07/19 06:35:10;;;;;;;;;;;20.80;61.60;;;20.18;57.51;96993.97;4266029;33;20247;-84
2022/07/19 06:37:38;;;;;;;;;;;20.80;61.70;;;20.18;57.42;96994.81;4291182;33;19971;-84
2022/07/19 06:40:08;;;;;;;;;;;20.80;61.60;;;20.18;57.56;96997.59;4290240;33;20385;-84
2022/07/19 06:42:37;;;;;;;;;;;20.80;61.60;;;20.21;57.29;96996.13;4289623;33;19902;-84
2022/07/19 06:45:07;;;;;;;;;;;20.80;61.40;;;20.21;57.17;96988.59;4290970;33;19902;-84
2022/07/19 06:47:36;;;;;;;;;;;20.80;61.30;;;20.22;57.00;96981.91;4290974;33;19916;-84
2022/07/19 06:50:07;;;;;;;;;;;20.90;61.40;;;20.26;57.16;96990.47;4291236;33;19901;-84
2022/07/19 06:52:36;;;;;;;;;;;20.90;61.40;;;20.28;57.21;96984.56;4290563;33;19916;-84
2022/07/19 06:55:05;;;;;;;;;;;20.90;61.40;;;20.30;57.18;96987.88;4266038;33;20044;-85
2022/07/19 06:57:33;;;;;;;;;;;20.90;61.30;;;20.33;56.99;96987.25;4293654;33;20156;-85
2022/07/19 07:00:02;;;;;;;;;;;20.90;61.30;;;20.35;56.71;96984.94;4293698;33;20435;-84
2022/07/19 07:02:31;;;;;;;;;;;21.00;61.30;;;20.39;56.74;96985.97;4292871;33;19909;-84
2022/07/19 07:05:00;;;;;;;;;;;21.00;61.20;;;20.42;56.79;96993.69;4292534;33;19901;-84
2022/07/19 07:07:30;;;;;;;;;;;21.00;61.10;;;20.44;56.75;96994.19;4292550;33;20066;-82
2022/07/19 07:09:59;;;;;;;;;;;21.00;60.90;;;20.47;56.77;96990.75;4292423;33;20082;-83
2022/07/19 07:12:28;;;;;;;;;;;21.10;61.00;;;20.49;56.57;96991.28;4292692;33;19908;-84
2022/07/19 07:14:56;;;;;;;;;;;21.10;61.00;;;20.50;56.73;96995.69;4268080;33;19901;-84
2022/07/19 07:17:25;;;;;;;;;;;21.10;60.90;;;20.52;56.38;96992.63;4293172;33;19901;-84
2022/07/19 07:19:53;;;;;;;;;;;21.10;60.80;;;20.52;56.39;96993.44;4292067;33;19901;-84
2022/07/19 07:22:22;;;;;;;;;;;21.10;60.70;;;20.54;56.47;96982.81;4292586;33;19902;-85
2022/07/19 07:24:52;;;;;;;;;;;21.10;60.60;;;20.54;56.20;96982.81;4292170;33;20262;-84
2022/07/19 07:27:20;;;;;;;;;;;21.10;60.50;;;20.56;56.34;96988.06;4293004;33;20121;-85
2022/07/19 07:29:49;;;;;;;;;;;21.10;60.50;;;20.56;56.18;96979.72;4292184;33;19908;-85
2022/07/19 07:32:18;;;;;;;;;;;21.10;60.40;;;20.58;56.26;96984.97;4292355;33;19959;-84
2022/07/19 07:34:46;;;;;;;;;;;21.10;60.40;;;20.59;56.31;96978.28;4291016;33;20216;-83
2022/07/19 07:37:15;;;;;;;;;;;21.20;60.30;;;20.60;55.90;96980.72;4292976;33;20015;-84
2022/07/19 07:39:44;;;;;;;;;;;21.20;60.20;;;20.60;56.06;96975.16;4293222;33;19995;-84
2022/07/19 07:42:14;;;;;;;;;;;21.20;60.20;;;20.60;55.92;96971.53;4291230;33;20145;-84
2022/07/19 07:44:43;;;;;;;;;;;21.20;60.10;;;20.61;55.90;96976.81;4293014;33;19908;-84
2022/07/19 07:47:11;;;;;;;;;;;21.20;60.10;;;20.63;55.81;96979.25;4267717;33;19908;-84
2022/07/19 07:49:40;;;;;;;;;;;21.20;60.00;;;20.63;55.99;96979.25;4292129;33;20153;-85
2022/07/19 07:52:08;;;;;;;;;;;21.20;60.00;;;20.65;55.85;96982.56;4292328;33;19901;-83
2022/07/19 07:54:38;;;;;;;;;;;21.20;59.90;;;20.65;55.62;96977.00;4292060;33;19931;-85
2022/07/19 07:57:08;;;;;;;;;;;21.20;59.80;;;20.66;55.55;96975.84;4267896;33;20610;-83
2022/07/19 07:59:38;;;;;;;;;;;21.20;59.90;;;20.68;55.52;96970.78;4292931;33;19908;-85
2022/07/19 08:02:06;;;;;;;;;;;21.30;59.90;;;20.68;55.29;96976.38;4291425;33;20215;-85
2022/07/19 08:04:35;;;;;;;;;;;21.30;59.60;;;20.69;55.83;96972.44;4292764;33;20238;-83
2022/07/19 08:07:04;;;;;;;;;;;21.30;59.90;;;20.69;55.60;96972.44;4267227;33;19917;-85
2022/07/19 08:09:32;;;;;;;;;;;21.30;59.70;;;20.68;55.65;96973.56;4267708;33;19954;-85
2022/07/19 08:12:01;;;;;;;;;;;21.30;59.80;;;20.69;55.58;96970.47;4291183;33;19902;-84
2022/07/19 08:14:29;;;;;;;;;;;21.30;59.90;;;20.70;55.59;96972.13;4291879;33;20114;-84
2022/07/19 08:16:59;;;;;;;;;;;21.30;59.80;;;20.71;55.70;96975.72;4267560;33;19902;-84
2022/07/19 08:19:28;;;;;;;;;;;21.30;59.90;;;20.71;55.78;96972.94;4291987;33;20035;-84
2022/07/19 08:21:57;;;;;;;;;;;21.30;59.90;;;20.69;55.41;96970.47;4292177;33;20528;-85
2022/07/19 08:24:25;;;;;;;;;;;21.30;59.90;;;20.70;55.92;96963.75;4291865;33;20223;-85
2022/07/19 08:26:55;;;;;;;;;;;21.30;60.10;;;20.70;55.75;96968.53;4292780;33;20016;-85
2022/07/19 08:29:24;;;;;;;;;;;21.30;60.00;;;20.69;55.84;96955.75;4291813;33;19909;-85
2022/07/19 08:31:52;;;;;;;;;;;21.30;60.10;;;20.68;56.27;96960.47;4290997;33;19901;-85
2022/07/19 08:34:22;;;;;;;;;;;21.30;60.40;;;20.67;56.19;96960.81;4267725;33;20158;-84
2022/07/19 08:36:51;;;;;;;;;;;21.30;60.40;;;20.66;56.20;96953.59;4292508;33;20119;-84
2022/07/19 08:39:19;;;;;;;;;;;21.30;60.40;;;20.65;56.27;96954.72;4292462;33;19909;-84
2022/07/19 08:41:48;;;;;;;;;;;21.30;60.40;;;20.63;56.12;96952.28;4290853;33;19976;-86
2022/07/19 08:44:17;;;;;;;;;;;21.30;60.30;;;20.63;56.15;96945.88;4292391;33;20126;-85
2022/07/19 08:46:46;;;;;;;;;;;21.20;60.30;;;20.61;56.07;96950.94;4291292;33;20183;-85
2022/07/19 08:49:15;;;;;;;;;;;21.20;60.20;;;20.60;56.37;96954.84;4291418;33;20021;-86
2022/07/19 08:51:45;;;;;;;;;;;21.20;60.30;;;20.60;56.44;96957.63;4291791;33;20142;-85
2022/07/19 08:54:13;;;;;;;;;;;21.20;60.30;;;20.58;56.36;96957.97;4267168;33;20059;-85
2022/07/19 08:59:28;;;;;;;;;;;21.20;60.40;;;20.57;56.18;96947.16;4291297;33;19908;-84
2022/07/19 09:01:56;;;;;;;;;;;21.20;60.40;;;20.56;56.36;96948.31;4290874;33;19908;-85
2022/07/19 09:04:27;;;;;;;;;;;21.20;60.50;;;20.54;56.52;96943.88;4291242;33;19909;-85
2022/07/19 09:06:58;;;;;;;;;;;21.20;60.60;;;20.54;56.54;96937.47;4291087;33;20083;-85
2022/07/19 09:09:28;;;;;;;;;;;21.20;60.60;;;20.53;56.44;96942.22;4291031;33;20366;-85
2022/07/19 09:11:58;;;;;;;;;;;21.10;60.60;;;20.52;56.60;96937.00;4266111;33;20154;-84
2022/07/19 09:14:27;;;;;;;;;;;21.10;60.70;;;20.51;56.89;96930.59;4266854;33;20107;-83
2022/07/19 09:17:01;;;;;;;;;;;21.10;60.80;;;20.51;56.97;96943.69;4290938;33;20124;-85
2022/07/19 09:19:32;;;;;;;;;;;21.10;60.80;;;20.50;56.65;96930.94;4290102;33;19908;-83
2022/07/19 09:22:04;;;;;;;;;;;21.10;60.90;;;20.49;56.71;96935.66;4290311;33;20104;-85
2022/07/19 09:24:34;;;;;;;;;;;21.10;60.90;;;20.49;56.73;96930.09;4290601;33;20133;-84
2022/07/19 09:27:05;;;;;;;;;;;21.10;61.00;;;20.49;56.91;96930.09;4266436;33;19901;-84
2022/07/19 09:29:35;;;;;;;;;;;21.10;61.00;;;20.48;56.82;96925.66;4291554;33;19917;-83
2022/07/19 09:32:07;;;;;;;;;;;21.10;60.90;;;20.47;56.85;96914.88;4290864;33;19908;-84
2022/07/19 09:34:37;;;;;;;;;;;21.20;61.10;;;20.47;56.70;96921.22;4266285;33;20156;-85
2022/07/19 09:37:16;;;;;;;;;;;21.20;61.10;;;20.48;56.91;96919.28;4290546;33;20157;-83
2022/07/19 09:39:46;;;;;;;;;;;21.10;61.20;;;20.47;57.25;96920.44;4291472;33;20292;-84
2022/07/19 09:42:16;;;;;;;;;;;21.10;61.20;;;20.46;56.85;96914.03;4290069;33;19901;-84
2022/07/19 09:44:46;;;;;;;;;;;21.10;61.10;;;20.47;57.06;96915.66;4290266;33;19902;-85
2022/07/19 09:47:14;;;;;;;;;;;21.10;61.10;;;20.46;57.01;96913.22;4290452;33;19924;-84
2022/07/19 09:49:43;;;;;;;;;;;21.10;61.30;;;20.46;57.13;96916.81;4290252;33;20123;-84
2022/07/19 09:52:13;;;;;;;;;;;21.10;61.20;;;20.47;57.06;96906.53;4290812;33;19909;-84
2022/07/19 09:54:41;;;;;;;;;;;21.10;61.30;;;20.45;57.16;96909.63;4291162;33;19953;-84
2022/07/19 09:57:10;;;;;;;;;;;21.10;61.30;;;20.45;56.71;96908.78;4290219;33;19901;-83
2022/07/19 09:59:39;;;;;;;;;;;21.10;61.20;;;20.45;57.08;96911.56;4265927;33;19908;-85
2022/07/19 10:02:07;;;;;;;;;;;21.10;61.30;;;20.43;56.82;96914.69;4290594;32;19902;-85
2022/07/19 10:04:36;;;;;;;;;;;21.10;61.20;;;20.44;56.96;96910.78;4266250;33;20079;-84
2022/07/19 10:07:05;;;;;;;;;;;21.10;61.20;;;20.42;57.21;96901.91;4290282;33;20476;-85
2022/07/19 10:09:35;;;;;;;;;;;21.10;61.20;;;20.43;57.11;96909.13;4290202;33;20058;-85
2022/07/19 10:12:03;;;;;;;;;;;21.10;61.30;;;20.43;56.97;96903.56;4265334;33;20001;-85
2022/07/19 10:14:32;;;;;;;;;;;21.10;61.40;;;20.44;57.13;96904.38;4290288;33;19901;-85
2022/07/19 10:17:10;;;;;;;;;;;21.10;61.50;;;20.42;57.31;96896.34;4262338;33;20022;-83
2022/07/19 10:19:40;;;;;;;;;;;21.10;61.50;;;20.42;57.47;96893.56;4237377;33;20079;-83
2022/07/19 10:22:11;;;;;;;;;;;21.10;61.60;;;20.40;57.20;96893.06;4265429;33;19908;-85
2022/07/19 10:24:50;;;;;;;;;;;21.00;61.30;;;20.41;57.44;96894.72;4290112;33;20214;-85
2022/07/19 10:27:35;;;;;;;;;;;21.10;61.60;;;20.39;57.38;96885.84;4261116;33;19933;-85
2022/07/19 10:30:25;;;;;;;;;;;21.10;61.70;;;20.39;57.36;96892.25;4237437;33;19902;-85
2022/07/19 10:32:56;;;;;;;;;;;21.00;61.60;;;20.39;57.47;96892.25;4239142;33;20245;-85
2022/07/19 10:35:29;;;;;;;;;;;21.00;61.70;;;20.40;57.42;96887.50;4263632;33;19909;-85
2022/07/19 10:38:10;;;;;;;;;;;21.00;61.60;;;20.39;57.04;96885.84;4263709;33;20113;-84
2022/07/19 10:40:42;;;;;;;;;;;21.10;61.60;;;20.38;57.25;96876.72;4264521;33;19901;-85
2022/07/19 10:43:12;;;;;;;;;;;21.00;61.50;;;20.38;57.38;96873.09;4263877;33;19901;-85
2022/07/19 10:45:41;;;;;;;;;;;21.00;61.50;;;20.38;56.92;96867.53;4264364;33;19902;-86
2022/07/19 10:48:15;;;;;;;;;;;21.10;61.40;;;20.37;57.43;96871.44;4239658;33;20320;-85
2022/07/19 10:50:55;;;;;;;;;;;21.00;61.70;;;20.36;57.38;96867.03;4263411;33;19933;-85
2022/07/19 10:53:59;;;;;;;;;;;21.00;61.50;;;20.36;57.33;96867.84;4262868;33;20163;-85
2022/07/19 10:56:40;;;;;;;;;;;21.00;61.80;;;20.37;57.56;96863.09;4263547;33;19932;-85
2022/07/19 10:59:10;;;;;;;;;;;21.00;61.70;;;20.34;57.33;96860.94;4239545;33;20154;-84
2022/07/19 11:01:39;;;;;;;;;;;21.00;61.70;;;20.35;57.50;96863.44;4279545;33;20112;-85
2022/07/19 11:04:29;;;;;;;;;;;21.00;61.70;;;20.35;57.62;96851.47;4292234;33;19908;-84
2022/07/19 11:07:25;;;;;;;;;;;21.00;61.70;;;20.34;57.43;96849.81;4292180;33;19991;-84
2022/07/19 11:09:56;;;;;;;;;;;21.00;61.60;;;20.35;57.70;96857.03;4227167;32;19902;-82
2022/07/19 11:12:32;;;;;;;;;;;21.00;61.80;;;20.34;57.47;96844.28;4291560;33;19902;-83
2022/07/19 11:15:03;;;;;;;;;;;21.00;61.70;;;20.34;57.29;96844.28;4293107;33;19913;-84
2022/07/19 11:17:32;;;;;;;;;;;21.00;61.60;;;20.35;57.23;96857.03;4293041;33;20046;-85
2022/07/19 11:20:06;;;;;;;;;;;21.00;61.70;;;20.34;57.49;96850.66;4292040;33;19901;-83
2022/07/19 11:22:40;;;;;;;;;;;21.00;61.80;;;20.34;57.43;96841.50;4291592;33;19901;-84
2022/07/19 11:25:10;;;;;;;;;;;21.00;61.80;;;20.35;57.45;96843.97;4292128;33;19902;-84
2022/07/19 11:27:44;;;;;;;;;;;21.00;61.80;;;20.34;57.55;96833.97;4292914;33;20031;-84
2022/07/19 11:30:13;;;;;;;;;;;21.00;61.70;;;20.34;57.30;96825.66;4291945;33;19999;-84